sensor_id;sensor_type;location;lat;lon;timestamp;P1;durP1;ratioP1;P2;durP2;ratioP2
70122;SDS011;57489;37.404;24.920;2022-10-16T00:04:23;7.00;;;2.78;;
70122;SDS011;57489;37.404;24.920;2022-10-16T00:09:23;9.50;;;3.00;;
70122;SDS011;57489;37.404;24.920;2022-10-16T00:14:24;7.37;;;2.37;;
70122;SDS011;57489;37.404;24.920;2022-10-16T00:19:24;8.07;;;2.43;;
70122;SDS011;57489;37.404;24.920;2022-10-16T00:24:25;7.10;;;2.47;;
70122;SDS011;57489;37.404;24.920;2022-10-16T00:29:25;8.07;;;2.70;;
70122;SDS011;57489;37.404;24.920;2022-10-16T00:34:26;7.23;;;2.60;;
70122;SDS011;57489;37.404;24.920;2022-10-16T00:39:26;7.50;;;2.93;;
70122;SDS011;57489;37.404;24.920;2022-10-16T00:44:43;8.37;;;2.40;;
70122;SDS011;57489;37.404;24.920;2022-10-16T00:49:47;7.93;;;2.28;;
70122;SDS011;57489;37.404;24.920;2022-10-16T00:54:50;8.60;;;2.70;;
70122;SDS011;57489;37.404;24.920;2022-10-16T00:59:53;8.60;;;2.13;;
70122;SDS011;57489;37.404;24.920;2022-10-16T01:04:54;5.22;;;2.10;;
70122;SDS011;57489;37.404;24.920;2022-10-16T01:25:49;5.35;;;2.33;;
70122;SDS011;57489;37.404;24.920;2022-10-16T01:30:58;6.93;;;2.47;;
70122;SDS011;57489;37.404;24.920;2022-10-16T01:36:02;7.97;;;2.67;;
70122;SDS011;57489;37.404;24.920;2022-10-16T01:41:15;5.80;;;2.40;;
70122;SDS011;57489;37.404;24.920;2022-10-16T01:46:20;5.47;;;2.40;;
70122;SDS011;57489;37.404;24.920;2022-10-16T01:51:22;5.97;;;1.80;;
70122;SDS011;57489;37.404;24.920;2022-10-16T01:56:24;12.57;;;3.17;;
70122;SDS011;57489;37.404;24.920;2022-10-16T02:01:26;8.20;;;2.22;;
70122;SDS011;57489;37.404;24.920;2022-10-16T02:06:30;7.33;;;2.40;;
70122;SDS011;57489;37.404;24.920;2022-10-16T02:11:32;6.40;;;2.63;;
70122;SDS011;57489;37.404;24.920;2022-10-16T02:16:33;8.63;;;2.40;;
70122;SDS011;57489;37.404;24.920;2022-10-16T02:22:01;7.70;;;2.78;;
70122;SDS011;57489;37.404;24.920;2022-10-16T02:27:05;10.85;;;2.47;;
70122;SDS011;57489;37.404;24.920;2022-10-16T02:32:12;7.50;;;2.30;;
70122;SDS011;57489;37.404;24.920;2022-10-16T02:37:14;6.53;;;2.95;;
70122;SDS011;57489;37.404;24.920;2022-10-16T02:42:17;5.85;;;3.00;;
70122;SDS011;57489;37.404;24.920;2022-10-16T02:47:18;6.97;;;2.67;;
70122;SDS011;57489;37.404;24.920;2022-10-16T02:52:18;6.60;;;2.42;;
70122;SDS011;57489;37.404;24.920;2022-10-16T02:57:19;8.17;;;2.80;;
70122;SDS011;57489;37.404;24.920;2022-10-16T03:02:20;7.70;;;2.73;;
70122;SDS011;57489;37.404;24.920;2022-10-16T03:07:21;9.18;;;2.38;;
70122;SDS011;57489;37.404;24.920;2022-10-16T03:12:21;9.33;;;3.17;;
70122;SDS011;57489;37.404;24.920;2022-10-16T03:17:22;6.23;;;2.47;;
70122;SDS011;57489;37.404;24.920;2022-10-16T03:22:23;8.88;;;3.45;;
70122;SDS011;57489;37.404;24.920;2022-10-16T03:27:23;9.30;;;2.60;;
70122;SDS011;57489;37.404;24.920;2022-10-16T03:32:24;7.00;;;2.40;;
70122;SDS011;57489;37.404;24.920;2022-10-16T03:37:24;7.67;;;2.60;;
70122;SDS011;57489;37.404;24.920;2022-10-16T03:42:25;7.27;;;2.90;;
70122;SDS011;57489;37.404;24.920;2022-10-16T03:47:25;8.93;;;2.73;;
70122;SDS011;57489;37.404;24.920;2022-10-16T03:52:25;6.00;;;2.40;;
70122;SDS011;57489;37.404;24.920;2022-10-16T03:57:26;8.83;;;2.63;;
70122;SDS011;57489;37.404;24.920;2022-10-16T04:02:26;7.07;;;3.05;;
70122;SDS011;57489;37.404;24.920;2022-10-16T04:07:27;6.90;;;2.60;;
70122;SDS011;57489;37.404;24.920;2022-10-16T04:12:27;6.97;;;2.70;;
70122;SDS011;57489;37.404;24.920;2022-10-16T04:17:28;10.17;;;3.43;;
70122;SDS011;57489;37.404;24.920;2022-10-16T04:22:28;7.43;;;2.73;;
70122;SDS011;57489;37.404;24.920;2022-10-16T04:27:29;7.93;;;2.77;;
70122;SDS011;57489;37.404;24.920;2022-10-16T04:32:29;6.07;;;2.80;;
70122;SDS011;57489;37.404;24.920;2022-10-16T04:37:30;7.73;;;3.30;;
70122;SDS011;57489;37.404;24.920;2022-10-16T04:42:30;7.13;;;2.60;;
70122;SDS011;57489;37.404;24.920;2022-10-16T04:47:31;9.17;;;2.70;;
70122;SDS011;57489;37.404;24.920;2022-10-16T04:52:31;6.83;;;2.80;;
70122;SDS011;57489;37.404;24.920;2022-10-16T04:57:32;9.50;;;3.10;;
70122;SDS011;57489;37.404;24.920;2022-10-16T05:02:32;9.00;;;2.70;;
70122;SDS011;57489;37.404;24.920;2022-10-16T05:07:33;7.33;;;2.50;;
70122;SDS011;57489;37.404;24.920;2022-10-16T05:12:33;7.27;;;3.47;;
70122;SDS011;57489;37.404;24.920;2022-10-16T05:17:34;7.77;;;2.50;;
70122;SDS011;57489;37.404;24.920;2022-10-16T05:22:34;7.30;;;2.50;;
70122;SDS011;57489;37.404;24.920;2022-10-16T05:27:35;6.87;;;3.10;;
70122;SDS011;57489;37.404;24.920;2022-10-16T05:32:35;7.77;;;2.77;;
70122;SDS011;57489;37.404;24.920;2022-10-16T05:37:36;7.17;;;2.10;;
70122;SDS011;57489;37.404;24.920;2022-10-16T05:42:36;6.23;;;2.23;;
70122;SDS011;57489;37.404;24.920;2022-10-16T05:47:36;7.03;;;2.37;;
70122;SDS011;57489;37.404;24.920;2022-10-16T05:52:37;6.57;;;2.57;;
70122;SDS011;57489;37.404;24.920;2022-10-16T05:57:37;6.30;;;2.40;;
70122;SDS011;57489;37.404;24.920;2022-10-16T06:02:38;8.25;;;2.35;;
70122;SDS011;57489;37.404;24.920;2022-10-16T06:07:39;7.63;;;2.80;;
70122;SDS011;57489;37.404;24.920;2022-10-16T06:12:39;6.10;;;2.47;;
70122;SDS011;57489;37.404;24.920;2022-10-16T06:17:39;7.23;;;2.70;;
70122;SDS011;57489;37.404;24.920;2022-10-16T06:22:40;5.90;;;2.20;;
70122;SDS011;57489;37.404;24.920;2022-10-16T06:27:40;6.93;;;2.43;;
70122;SDS011;57489;37.404;24.920;2022-10-16T06:32:41;9.57;;;2.73;;
70122;SDS011;57489;37.404;24.920;2022-10-16T06:37:41;7.03;;;2.97;;
70122;SDS011;57489;37.404;24.920;2022-10-16T06:42:42;8.60;;;2.85;;
70122;SDS011;57489;37.404;24.920;2022-10-16T06:47:42;7.40;;;2.50;;
70122;SDS011;57489;37.404;24.920;2022-10-16T06:52:43;6.90;;;2.40;;
70122;SDS011;57489;37.404;24.920;2022-10-16T06:57:43;6.57;;;2.43;;
70122;SDS011;57489;37.404;24.920;2022-10-16T07:02:44;8.00;;;2.77;;
70122;SDS011;57489;37.404;24.920;2022-10-16T07:07:44;6.90;;;2.80;;
70122;SDS011;57489;37.404;24.920;2022-10-16T07:12:44;10.90;;;2.77;;
70122;SDS011;57489;37.404;24.920;2022-10-16T07:17:45;6.90;;;2.20;;
70122;SDS011;57489;37.404;24.920;2022-10-16T07:22:45;7.17;;;2.13;;
70122;SDS011;57489;37.404;24.920;2022-10-16T07:27:46;7.57;;;2.20;;
70122;SDS011;57489;37.404;24.920;2022-10-16T07:32:46;7.43;;;2.70;;
70122;SDS011;57489;37.404;24.920;2022-10-16T07:37:47;10.93;;;2.63;;
70122;SDS011;57489;37.404;24.920;2022-10-16T07:42:47;9.07;;;2.30;;
70122;SDS011;57489;37.404;24.920;2022-10-16T07:47:48;8.47;;;2.67;;
70122;SDS011;57489;37.404;24.920;2022-10-16T07:52:48;9.70;;;2.63;;
70122;SDS011;57489;37.404;24.920;2022-10-16T07:57:49;9.33;;;2.77;;
70122;SDS011;57489;37.404;24.920;2022-10-16T08:02:49;10.63;;;2.77;;
70122;SDS011;57489;37.404;24.920;2022-10-16T08:07:50;7.83;;;2.70;;
70122;SDS011;57489;37.404;24.920;2022-10-16T08:12:50;9.50;;;2.42;;
70122;SDS011;57489;37.404;24.920;2022-10-16T08:17:58;11.53;;;2.80;;
70122;SDS011;57489;37.404;24.920;2022-10-16T08:22:59;8.55;;;3.25;;
70122;SDS011;57489;37.404;24.920;2022-10-16T08:28:00;9.80;;;3.30;;
70122;SDS011;57489;37.404;24.920;2022-10-16T08:33:04;9.63;;;2.97;;
70122;SDS011;57489;37.404;24.920;2022-10-16T08:38:05;8.18;;;3.58;;
70122;SDS011;57489;37.404;24.920;2022-10-16T08:53:26;7.63;;;2.72;;
70122;SDS011;57489;37.404;24.920;2022-10-16T08:58:30;11.63;;;3.63;;
70122;SDS011;57489;37.404;24.920;2022-10-16T09:24:16;16.05;;;3.90;;
70122;SDS011;57489;37.404;24.920;2022-10-16T09:29:19;11.68;;;3.67;;
70122;SDS011;57489;37.404;24.920;2022-10-16T09:34:30;15.13;;;3.60;;
70122;SDS011;57489;37.404;24.920;2022-10-16T09:39:46;11.95;;;3.75;;
70122;SDS011;57489;37.404;24.920;2022-10-16T09:44:51;9.63;;;3.17;;
70122;SDS011;57489;37.404;24.920;2022-10-16T09:49:55;15.37;;;3.93;;
70122;SDS011;57489;37.404;24.920;2022-10-16T09:54:58;11.20;;;3.03;;
70122;SDS011;57489;37.404;24.920;2022-10-16T10:00:00;9.60;;;3.40;;
70122;SDS011;57489;37.404;24.920;2022-10-16T10:05:22;10.33;;;3.33;;
70122;SDS011;57489;37.404;24.920;2022-10-16T10:10:28;12.80;;;3.80;;
70122;SDS011;57489;37.404;24.920;2022-10-16T10:15:33;9.93;;;3.17;;
70122;SDS011;57489;37.404;24.920;2022-10-16T10:20:36;10.07;;;3.38;;
70122;SDS011;57489;37.404;24.920;2022-10-16T10:25:49;7.10;;;2.93;;
70122;SDS011;57489;37.404;24.920;2022-10-16T10:30:56;12.57;;;3.40;;
70122;SDS011;57489;37.404;24.920;2022-10-16T11:08:40;14.05;;;3.72;;
70122;SDS011;57489;37.404;24.920;2022-10-16T11:14:06;8.90;;;3.67;;
70122;SDS011;57489;37.404;24.920;2022-10-16T11:19:28;9.30;;;3.25;;
70122;SDS011;57489;37.404;24.920;2022-10-16T11:30:25;9.87;;;3.23;;
70122;SDS011;57489;37.404;24.920;2022-10-16T11:35:39;10.98;;;3.83;;
70122;SDS011;57489;37.404;24.920;2022-10-16T11:40:45;12.02;;;4.15;;
70122;SDS011;57489;37.404;24.920;2022-10-16T11:45:51;11.63;;;4.00;;
70122;SDS011;57489;37.404;24.920;2022-10-16T11:56:07;11.02;;;3.95;;
70122;SDS011;57489;37.404;24.920;2022-10-16T12:11:37;14.38;;;3.83;;
70122;SDS011;57489;37.404;24.920;2022-10-16T12:16:39;11.65;;;3.92;;
70122;SDS011;57489;37.404;24.920;2022-10-16T12:21:52;14.37;;;3.70;;
70122;SDS011;57489;37.404;24.920;2022-10-16T12:26:56;11.18;;;3.00;;
70122;SDS011;57489;37.404;24.920;2022-10-16T12:31:56;11.93;;;3.80;;
70122;SDS011;57489;37.404;24.920;2022-10-16T12:37:07;10.18;;;3.33;;
70122;SDS011;57489;37.404;24.920;2022-10-16T12:42:30;8.70;;;3.70;;
70122;SDS011;57489;37.404;24.920;2022-10-16T13:02:58;7.20;;;3.38;;
70122;SDS011;57489;37.404;24.920;2022-10-16T13:13:43;9.73;;;3.80;;
70122;SDS011;57489;37.404;24.920;2022-10-16T13:35:30;9.05;;;2.75;;
70122;SDS011;57489;37.404;24.920;2022-10-16T13:40:32;6.90;;;2.88;;
70122;SDS011;57489;37.404;24.920;2022-10-16T13:45:33;9.43;;;3.40;;
70122;SDS011;57489;37.404;24.920;2022-10-16T13:50:33;12.97;;;3.70;;
70122;SDS011;57489;37.404;24.920;2022-10-16T13:55:34;10.63;;;2.97;;
70122;SDS011;57489;37.404;24.920;2022-10-16T14:00:34;10.10;;;3.70;;
70122;SDS011;57489;37.404;24.920;2022-10-16T14:05:35;10.07;;;3.17;;
70122;SDS011;57489;37.404;24.920;2022-10-16T14:10:35;8.82;;;3.13;;
70122;SDS011;57489;37.404;24.920;2022-10-16T14:15:36;9.50;;;3.13;;
70122;SDS011;57489;37.404;24.920;2022-10-16T14:20:37;11.97;;;2.80;;
70122;SDS011;57489;37.404;24.920;2022-10-16T14:25:37;16.55;;;3.33;;
70122;SDS011;57489;37.404;24.920;2022-10-16T14:30:48;13.40;;;3.63;;
70122;SDS011;57489;37.404;24.920;2022-10-16T14:41:04;9.93;;;3.95;;
70122;SDS011;57489;37.404;24.920;2022-10-16T14:46:11;11.98;;;4.15;;
70122;SDS011;57489;37.404;24.920;2022-10-16T14:51:14;11.37;;;4.30;;
70122;SDS011;57489;37.404;24.920;2022-10-16T14:56:19;21.00;;;4.68;;
70122;SDS011;57489;37.404;24.920;2022-10-16T15:01:24;17.02;;;4.65;;
70122;SDS011;57489;37.404;24.920;2022-10-16T15:06:24;11.40;;;3.57;;
70122;SDS011;57489;37.404;24.920;2022-10-16T15:11:25;12.50;;;4.77;;
70122;SDS011;57489;37.404;24.920;2022-10-16T15:16:25;8.47;;;3.60;;
70122;SDS011;57489;37.404;24.920;2022-10-16T15:21:30;10.97;;;4.27;;
70122;SDS011;57489;37.404;24.920;2022-10-16T15:26:31;15.45;;;4.80;;
70122;SDS011;57489;37.404;24.920;2022-10-16T15:31:32;8.73;;;3.83;;
70122;SDS011;57489;37.404;24.920;2022-10-16T15:36:34;11.48;;;4.00;;
70122;SDS011;57489;37.404;24.920;2022-10-16T15:41:35;11.70;;;3.80;;
70122;SDS011;57489;37.404;24.920;2022-10-16T15:46:36;11.90;;;4.80;;
70122;SDS011;57489;37.404;24.920;2022-10-16T15:51:40;13.43;;;4.03;;
70122;SDS011;57489;37.404;24.920;2022-10-16T15:56:42;10.87;;;4.43;;
70122;SDS011;57489;37.404;24.920;2022-10-16T16:01:42;9.03;;;3.87;;
70122;SDS011;57489;37.404;24.920;2022-10-16T16:06:43;9.45;;;4.03;;
70122;SDS011;57489;37.404;24.920;2022-10-16T16:11:43;9.60;;;3.50;;
70122;SDS011;57489;37.404;24.920;2022-10-16T16:16:43;14.20;;;3.93;;
70122;SDS011;57489;37.404;24.920;2022-10-16T16:21:44;12.33;;;4.57;;
70122;SDS011;57489;37.404;24.920;2022-10-16T16:26:44;12.10;;;4.23;;
70122;SDS011;57489;37.404;24.920;2022-10-16T16:31:45;12.73;;;3.93;;
70122;SDS011;57489;37.404;24.920;2022-10-16T16:36:45;13.37;;;3.50;;
70122;SDS011;57489;37.404;24.920;2022-10-16T16:41:46;16.67;;;4.90;;
70122;SDS011;57489;37.404;24.920;2022-10-16T16:46:46;10.73;;;4.33;;
70122;SDS011;57489;37.404;24.920;2022-10-16T16:51:47;11.98;;;3.80;;
70122;SDS011;57489;37.404;24.920;2022-10-16T16:56:47;11.80;;;3.83;;
70122;SDS011;57489;37.404;24.920;2022-10-16T17:01:48;8.00;;;3.70;;
70122;SDS011;57489;37.404;24.920;2022-10-16T17:06:49;12.03;;;4.03;;
70122;SDS011;57489;37.404;24.920;2022-10-16T17:11:49;13.23;;;3.38;;
70122;SDS011;57489;37.404;24.920;2022-10-16T17:16:51;13.10;;;3.80;;
70122;SDS011;57489;37.404;24.920;2022-10-16T17:21:52;9.20;;;3.93;;
70122;SDS011;57489;37.404;24.920;2022-10-16T17:26:52;8.70;;;3.40;;
70122;SDS011;57489;37.404;24.920;2022-10-16T17:31:54;10.47;;;3.53;;
70122;SDS011;57489;37.404;24.920;2022-10-16T17:36:55;11.33;;;3.73;;
70122;SDS011;57489;37.404;24.920;2022-10-16T17:41:56;11.63;;;3.67;;
70122;SDS011;57489;37.404;24.920;2022-10-16T17:46:56;10.02;;;3.70;;
70122;SDS011;57489;37.404;24.920;2022-10-16T17:51:57;10.33;;;3.73;;
70122;SDS011;57489;37.404;24.920;2022-10-16T17:56:57;8.60;;;3.53;;
70122;SDS011;57489;37.404;24.920;2022-10-16T18:01:57;14.60;;;5.83;;
70122;SDS011;57489;37.404;24.920;2022-10-16T18:06:58;15.67;;;8.10;;
70122;SDS011;57489;37.404;24.920;2022-10-16T18:11:58;19.97;;;9.07;;
70122;SDS011;57489;37.404;24.920;2022-10-16T18:16:59;17.13;;;8.93;;
70122;SDS011;57489;37.404;24.920;2022-10-16T18:22:00;25.42;;;9.35;;
70122;SDS011;57489;37.404;24.920;2022-10-16T18:27:00;24.83;;;8.10;;
70122;SDS011;57489;37.404;24.920;2022-10-16T18:32:01;16.93;;;7.87;;
70122;SDS011;57489;37.404;24.920;2022-10-16T18:37:01;15.10;;;6.97;;
70122;SDS011;57489;37.404;24.920;2022-10-16T18:42:02;16.97;;;6.97;;
70122;SDS011;57489;37.404;24.920;2022-10-16T18:47:02;13.23;;;6.40;;
70122;SDS011;57489;37.404;24.920;2022-10-16T18:52:03;14.03;;;6.40;;
70122;SDS011;57489;37.404;24.920;2022-10-16T18:57:04;16.73;;;4.90;;
70122;SDS011;57489;37.404;24.920;2022-10-16T19:02:05;19.43;;;5.77;;
70122;SDS011;57489;37.404;24.920;2022-10-16T19:07:06;13.20;;;5.23;;
70122;SDS011;57489;37.404;24.920;2022-10-16T19:12:06;18.38;;;5.95;;
70122;SDS011;57489;37.404;24.920;2022-10-16T19:17:07;10.90;;;4.60;;
70122;SDS011;57489;37.404;24.920;2022-10-16T19:22:07;12.40;;;4.47;;
70122;SDS011;57489;37.404;24.920;2022-10-16T19:27:08;13.03;;;4.10;;
70122;SDS011;57489;37.404;24.920;2022-10-16T19:32:09;8.73;;;4.03;;
70122;SDS011;57489;37.404;24.920;2022-10-16T19:37:09;11.97;;;4.13;;
70122;SDS011;57489;37.404;24.920;2022-10-16T19:42:09;10.57;;;3.70;;
70122;SDS011;57489;37.404;24.920;2022-10-16T19:47:10;9.13;;;3.57;;
70122;SDS011;57489;37.404;24.920;2022-10-16T19:52:10;9.00;;;3.73;;
70122;SDS011;57489;37.404;24.920;2022-10-16T19:57:11;11.43;;;3.97;;
70122;SDS011;57489;37.404;24.920;2022-10-16T20:02:11;11.77;;;4.17;;
70122;SDS011;57489;37.404;24.920;2022-10-16T20:07:12;9.53;;;3.77;;
70122;SDS011;57489;37.404;24.920;2022-10-16T20:12:12;7.35;;;3.70;;
70122;SDS011;57489;37.404;24.920;2022-10-16T20:17:13;7.97;;;3.43;;
70122;SDS011;57489;37.404;24.920;2022-10-16T20:22:13;7.00;;;3.50;;
70122;SDS011;57489;37.404;24.920;2022-10-16T20:27:14;9.07;;;3.33;;
70122;SDS011;57489;37.404;24.920;2022-10-16T20:32:14;11.57;;;4.53;;
70122;SDS011;57489;37.404;24.920;2022-10-16T20:37:15;14.50;;;3.50;;
70122;SDS011;57489;37.404;24.920;2022-10-16T20:42:16;9.10;;;3.03;;
70122;SDS011;57489;37.404;24.920;2022-10-16T20:47:16;10.37;;;3.13;;
70122;SDS011;57489;37.404;24.920;2022-10-16T20:52:17;7.80;;;4.13;;
70122;SDS011;57489;37.404;24.920;2022-10-16T20:57:17;10.80;;;3.27;;
70122;SDS011;57489;37.404;24.920;2022-10-16T21:02:18;10.30;;;3.10;;
70122;SDS011;57489;37.404;24.920;2022-10-16T21:07:18;8.07;;;3.43;;
70122;SDS011;57489;37.404;24.920;2022-10-16T21:12:18;9.73;;;3.20;;
70122;SDS011;57489;37.404;24.920;2022-10-16T21:17:19;7.57;;;3.27;;
70122;SDS011;57489;37.404;24.920;2022-10-16T21:22:19;8.32;;;2.97;;
70122;SDS011;57489;37.404;24.920;2022-10-16T21:27:20;11.23;;;3.27;;
70122;SDS011;57489;37.404;24.920;2022-10-16T21:32:20;9.03;;;3.17;;
70122;SDS011;57489;37.404;24.920;2022-10-16T21:37:21;10.73;;;3.37;;
70122;SDS011;57489;37.404;24.920;2022-10-16T21:42:21;11.50;;;3.57;;
70122;SDS011;57489;37.404;24.920;2022-10-16T21:47:22;14.57;;;3.80;;
70122;SDS011;57489;37.404;24.920;2022-10-16T21:52:23;14.07;;;3.90;;
70122;SDS011;57489;37.404;24.920;2022-10-16T21:57:23;9.53;;;3.50;;
70122;SDS011;57489;37.404;24.920;2022-10-16T22:02:24;10.90;;;3.43;;
70122;SDS011;57489;37.404;24.920;2022-10-16T22:07:24;12.83;;;3.47;;
70122;SDS011;57489;37.404;24.920;2022-10-16T22:12:25;14.00;;;3.33;;
70122;SDS011;57489;37.404;24.920;2022-10-16T22:17:25;16.27;;;3.73;;
70122;SDS011;57489;37.404;24.920;2022-10-16T22:22:26;14.77;;;3.80;;
70122;SDS011;57489;37.404;24.920;2022-10-16T22:27:27;12.15;;;2.85;;
70122;SDS011;57489;37.404;24.920;2022-10-16T22:32:28;12.43;;;3.60;;
70122;SDS011;57489;37.404;24.920;2022-10-16T22:37:28;10.50;;;3.47;;
70122;SDS011;57489;37.404;24.920;2022-10-16T22:42:29;10.63;;;3.03;;
70122;SDS011;57489;37.404;24.920;2022-10-16T22:47:29;10.30;;;3.20;;
70122;SDS011;57489;37.404;24.920;2022-10-16T22:52:30;10.50;;;3.33;;
70122;SDS011;57489;37.404;24.920;2022-10-16T22:57:31;7.80;;;2.97;;
70122;SDS011;57489;37.404;24.920;2022-10-16T23:02:32;10.50;;;3.53;;
70122;SDS011;57489;37.404;24.920;2022-10-16T23:07:33;8.93;;;3.17;;
70122;SDS011;57489;37.404;24.920;2022-10-16T23:12:34;8.85;;;3.13;;
70122;SDS011;57489;37.404;24.920;2022-10-16T23:17:35;8.43;;;3.03;;
70122;SDS011;57489;37.404;24.920;2022-10-16T23:22:35;7.33;;;2.83;;
70122;SDS011;57489;37.404;24.920;2022-10-16T23:27:36;7.43;;;2.60;;
70122;SDS011;57489;37.404;24.920;2022-10-16T23:32:36;8.63;;;2.90;;
70122;SDS011;57489;37.404;24.920;2022-10-16T23:37:37;10.33;;;3.27;;
70122;SDS011;57489;37.404;24.920;2022-10-16T23:42:37;6.87;;;2.50;;
70122;SDS011;57489;37.404;24.920;2022-10-16T23:47:38;8.77;;;2.63;;
70122;SDS011;57489;37.404;24.920;2022-10-16T23:52:38;6.80;;;2.47;;
70122;SDS011;57489;37.404;24.920;2022-10-16T23:57:39;8.70;;;2.77;;
